Aérodrome :
LOGIN :

S'inscrire | Disclaimer

   EN    FR    IT 

 










Légende :    VFR   VFR Marginal   IFR   IFR Intensif   IFR Très Intensif
Visi : 
Plafond : 
>= 8 km
>= 3000ft
5 à 8 km
1000 à 3000 ft
1500m à 5 km
500 à 1000 ft
800 à 1500m
200 à 500 ft
< 800m
< 200 ft
Symboles :   Orages  Brouillard  Fortes neiges  Fortes précipitations  Vent > 20 kt
SIGMETs :   Divers  Orages  Givrage  Turbulence  Onde Orograph.  Cendres Volcan.






- Altitude de l'aérodrome : 1521 ft
- Code IATA : NCY


LFLP - Annecy

DERNIER METAR :
  • 042130Z AUTO 00000KT 9999 BKN058 OVC068 09/05 Q1019

METARs EXPIRÉS :
  • 042100Z AUTO VRB02KT 9999 BKN060 BKN072 OVC082 10/04 Q1019
  • 042030Z AUTO VRB02KT 9999 OVC060 10/05 Q1019
  • 042000Z AUTO 31004KT 9999 OVC064 10/04 Q1019 TEMPO SHRA FEW030TCU OVC035
  • 041930Z AUTO 31004KT 9999 BKN066 OVC094 11/04 Q1019 TEMPO SHRA FEW030TCU OVC035
  • 041900Z AUTO 30003KT 250V320 9999 FEW070 BKN096 11/03 Q1019 NOSIG

TAF TAF LFLP
Valide du 04 à 15h jusqu'au 05 à 15h UTC


041400Z 0415/0515 23008KT CAVOK
TEMPO 0421/0515 BKN035
PROB30
TEMPO 0421/0424 SHRA FEW030TCU OVC035
BECMG 0510/0512 34008KT



MET'MAP, la Météo Aéronautique d'un coup d'oeil ! - Copyright ORBIFLY Décembre 2007 - Disclaimer

ORBIFLY MET'MAP TEAM :

Programmation & Développement : Alexandra Zaïnal
Sur une idée originale de : Baudouin d'Aumeries
Assistance à la programmation : Marc-Olivier Méhu
Soutien technique & logistique : Manuel Goepfert

Contact : metmap@orbifly.com




SOURCES & CREDITS :

   NOAA